createdAt,value
2023-05-19T00:01:52.711Z,12.06
2023-05-19T00:04:55.879Z,11.99
2023-05-19T00:08:01.052Z,12.07
2023-05-19T00:11:04.098Z,12.04
2023-05-19T00:14:09.813Z,12.04
2023-05-19T00:17:12.860Z,11.93
2023-05-19T00:20:15.951Z,11.95
2023-05-19T00:23:18.701Z,11.92
2023-05-19T00:26:25.004Z,11.84
2023-05-19T00:29:34.979Z,11.83
2023-05-19T00:32:37.816Z,11.79
2023-05-19T00:35:41.071Z,11.84
2023-05-19T00:38:43.834Z,11.78
2023-05-19T00:41:46.589Z,11.77
2023-05-19T00:44:49.306Z,11.67
2023-05-19T00:47:52.365Z,11.70
2023-05-19T00:51:04.635Z,11.67
2023-05-19T00:54:08.375Z,11.66
2023-05-19T00:57:12.062Z,11.71
2023-05-19T01:00:15.268Z,11.60
2023-05-19T01:03:20.876Z,11.63
2023-05-19T01:06:23.909Z,11.61
2023-05-19T01:09:27.056Z,11.60
2023-05-19T01:12:30.253Z,11.59
2023-05-19T01:16:07.162Z,11.61
2023-05-19T01:19:40.264Z,11.63
2023-05-19T01:23:01.119Z,11.68
2023-05-19T01:26:09.757Z,11.66
2023-05-19T01:29:41.318Z,11.74
2023-05-19T01:32:46.513Z,11.67
2023-05-19T01:35:50.561Z,11.67
2023-05-19T01:38:57.813Z,11.77
2023-05-19T01:42:01.932Z,11.88
2023-05-19T01:45:06.837Z,11.85
2023-05-19T01:48:11.289Z,11.77
2023-05-19T01:51:15.207Z,11.78
2023-05-19T01:54:18.855Z,11.77
2023-05-19T01:57:48.378Z,11.79
2023-05-19T02:01:07.283Z,11.73
2023-05-19T02:04:22.911Z,11.79
2023-05-19T02:07:35.474Z,11.82
2023-05-19T02:10:43.815Z,11.79
2023-05-19T02:13:51.467Z,11.78
2023-05-19T02:16:56.132Z,11.75
2023-05-19T02:19:59.301Z,11.77
2023-05-19T02:23:02.252Z,11.81
2023-05-19T02:26:05.236Z,11.82
2023-05-19T02:29:09.097Z,11.88
2023-05-19T02:32:12.084Z,11.88
2023-05-19T02:35:16.241Z,11.87
2023-05-19T02:38:19.340Z,11.84
2023-05-19T02:41:22.377Z,11.78
2023-05-19T02:44:25.157Z,11.83
2023-05-19T02:47:28.010Z,11.84
2023-05-19T02:50:31.088Z,11.81
2023-05-19T02:53:34.077Z,11.81
2023-05-19T02:56:36.894Z,11.82
2023-05-19T02:59:39.774Z,11.89
2023-05-19T03:02:44.200Z,11.90
2023-05-19T03:05:47.862Z,11.87
2023-05-19T03:08:51.133Z,11.86
2023-05-19T03:11:53.886Z,11.87
2023-05-19T03:14:56.605Z,11.85
2023-05-19T03:17:59.379Z,11.88
2023-05-19T03:21:02.173Z,11.88
2023-05-19T03:24:05.201Z,11.87
2023-05-19T03:27:09.051Z,11.93
2023-05-19T03:30:13.210Z,11.90
2023-05-19T03:33:30.028Z,11.94
2023-05-19T03:36:33.227Z,11.91
2023-05-19T03:39:37.091Z,11.93
2023-05-19T03:42:39.984Z,11.95
2023-05-19T03:45:43.035Z,11.99
2023-05-19T03:49:04.549Z,11.98
2023-05-19T03:52:26.204Z,12.00
2023-05-19T03:55:34.667Z,12.06
2023-05-19T03:58:39.486Z,12.02
2023-05-19T04:01:42.306Z,12.12
2023-05-19T04:04:45.089Z,12.16
2023-05-19T04:07:47.958Z,12.30
2023-05-19T04:10:50.746Z,12.32
2023-05-19T04:13:53.482Z,12.33
2023-05-19T04:16:56.392Z,12.44
2023-05-19T04:19:59.136Z,12.50
2023-05-19T04:23:01.867Z,12.48
2023-05-19T04:26:06.907Z,12.56
2023-05-19T04:29:10.947Z,12.50
2023-05-19T04:32:17.809Z,12.68
2023-05-19T04:35:21.398Z,12.67
2023-05-19T04:38:24.906Z,12.66
2023-05-19T04:41:27.832Z,12.81
2023-05-19T04:44:31.531Z,13.01
2023-05-19T04:47:37.090Z,12.81
2023-05-19T04:50:42.207Z,13.00
2023-05-19T04:53:45.708Z,13.14
2023-05-19T04:56:49.937Z,13.24
2023-05-19T04:59:53.662Z,13.25
2023-05-19T05:02:57.793Z,13.43
2023-05-19T05:06:02.470Z,13.48
2023-05-19T05:09:05.303Z,13.61
2023-05-19T05:12:09.235Z,13.15
2023-05-19T05:15:14.565Z,13.36
2023-05-19T05:18:17.725Z,13.22
2023-05-19T05:21:20.930Z,13.25
2023-05-19T05:24:24.148Z,13.34
2023-05-19T05:27:31.850Z,13.52
2023-05-19T05:30:35.519Z,13.38
2023-05-19T05:33:39.650Z,13.51
2023-05-19T05:36:42.603Z,13.37
2023-05-19T05:39:45.879Z,13.74
2023-05-19T05:42:49.642Z,14.01
2023-05-19T05:45:54.949Z,13.94
2023-05-19T05:48:58.101Z,14.23
2023-05-19T05:52:06.155Z,14.43
2023-05-19T05:55:18.629Z,14.58
2023-05-19T05:58:22.380Z,14.78
2023-05-19T06:01:25.292Z,14.48
2023-05-19T06:04:29.651Z,14.80
2023-05-19T06:07:32.436Z,14.53
2023-05-19T06:10:37.037Z,15.06
2023-05-19T06:13:43.068Z,15.26
2023-05-19T06:16:51.987Z,15.38
2023-05-19T06:19:54.837Z,14.91
2023-05-19T06:22:57.782Z,14.40
2023-05-19T06:26:02.912Z,14.99
2023-05-19T06:29:06.388Z,14.58
2023-05-19T06:32:09.227Z,15.16
2023-05-19T06:35:12.278Z,15.77
2023-05-19T06:38:15.055Z,15.83
2023-05-19T06:41:18.081Z,15.81
2023-05-19T06:44:23.295Z,16.20
2023-05-19T06:47:26.360Z,16.13
2023-05-19T06:50:29.218Z,15.92
2023-05-19T06:53:34.038Z,15.53
2023-05-19T06:56:39.288Z,16.12
2023-05-19T06:59:43.779Z,16.32
2023-05-19T07:02:47.489Z,16.72
2023-05-19T07:05:50.812Z,16.96
2023-05-19T07:08:54.091Z,17.19
2023-05-19T07:11:57.560Z,16.64
2023-05-19T07:15:00.752Z,16.49
2023-05-19T07:18:04.932Z,15.99
2023-05-19T07:21:07.761Z,15.24
2023-05-19T07:24:11.030Z,14.99
2023-05-19T07:27:13.865Z,14.65
2023-05-19T07:30:16.675Z,15.67
2023-05-19T07:33:19.515Z,15.79
2023-05-19T07:36:22.350Z,16.20
2023-05-19T07:39:28.019Z,16.72
2023-05-19T07:42:30.866Z,17.20
2023-05-19T07:45:34.911Z,17.23
2023-05-19T07:48:37.817Z,17.40
2023-05-19T07:51:42.074Z,17.38
2023-05-19T07:54:46.032Z,17.45
2023-05-19T07:57:50.637Z,17.46
2023-05-19T08:00:53.777Z,16.84
2023-05-19T08:03:56.994Z,17.58
2023-05-19T08:06:59.966Z,17.73
2023-05-19T08:10:03.738Z,17.81
2023-05-19T08:13:06.580Z,18.02
2023-05-19T08:16:09.320Z,18.16
2023-05-19T08:19:12.221Z,18.03
2023-05-19T08:22:14.998Z,18.43
2023-05-19T08:25:19.900Z,18.92
2023-05-19T08:28:22.833Z,19.62
2023-05-19T08:31:25.591Z,19.26
2023-05-19T08:34:28.628Z,18.93
2023-05-19T08:37:33.362Z,19.15
2023-05-19T08:40:41.298Z,18.80
2023-05-19T08:43:44.138Z,17.82
2023-05-19T08:46:50.086Z,17.78
2023-05-19T08:49:53.504Z,16.82
2023-05-19T08:53:04.910Z,17.81
2023-05-19T08:56:25.104Z,18.97
2023-05-19T08:59:28.259Z,19.49
2023-05-19T09:02:31.538Z,17.79
2023-05-19T09:05:34.644Z,17.73
2023-05-19T09:08:37.763Z,18.42
2023-05-19T09:11:40.656Z,19.53
2023-05-19T09:14:44.165Z,18.80
2023-05-19T09:17:50.694Z,18.81
2023-05-19T09:21:03.070Z,18.51
2023-05-19T09:24:08.112Z,17.59
2023-05-19T09:27:16.434Z,18.22
2023-05-19T09:30:19.687Z,18.73
2023-05-19T09:33:22.708Z,19.34
2023-05-19T09:36:25.889Z,18.95
2023-05-19T09:39:29.668Z,18.61
2023-05-19T09:42:38.028Z,19.68
2023-05-19T09:45:40.896Z,19.37
2023-05-19T09:48:44.045Z,18.99
2023-05-19T09:51:49.155Z,19.51
2023-05-19T09:54:54.026Z,19.74
2023-05-19T09:57:56.823Z,19.69
2023-05-19T10:01:00.660Z,18.71
2023-05-19T10:04:06.001Z,20.07
2023-05-19T10:07:11.588Z,20.16
2023-05-19T10:10:15.848Z,20.30
2023-05-19T10:13:19.732Z,20.47
2023-05-19T10:16:24.748Z,20.78
2023-05-19T10:19:29.216Z,20.71
2023-05-19T10:22:33.829Z,20.15
2023-05-19T10:25:37.787Z,21.18
2023-05-19T10:28:43.537Z,20.96
2023-05-19T10:31:48.209Z,19.49
2023-05-19T10:35:14.573Z,20.26
2023-05-19T10:38:26.320Z,20.66
2023-05-19T10:41:47.540Z,20.42
2023-05-19T10:45:17.985Z,20.84
2023-05-19T10:48:22.239Z,20.20
2023-05-19T10:51:32.308Z,20.18
2023-05-19T10:54:47.403Z,20.54
2023-05-19T10:57:58.895Z,21.06
2023-05-19T11:01:01.901Z,20.99
2023-05-19T11:04:12.350Z,21.24
2023-05-19T11:07:20.015Z,21.23
2023-05-19T11:10:25.882Z,21.32
2023-05-19T11:13:28.878Z,21.52
2023-05-19T11:16:35.003Z,21.70
2023-05-19T11:19:37.762Z,21.66
2023-05-19T11:22:40.593Z,20.82
2023-05-19T11:25:47.516Z,21.35
2023-05-19T11:28:52.180Z,20.10
2023-05-19T11:31:55.795Z,20.61
2023-05-19T11:34:58.606Z,19.84
2023-05-19T11:38:02.186Z,20.34
2023-05-19T11:41:05.248Z,19.95
2023-05-19T11:44:12.262Z,20.27
2023-05-19T11:47:15.966Z,20.81
2023-05-19T11:50:20.359Z,20.91
2023-05-19T11:53:23.416Z,20.61
2023-05-19T11:56:26.258Z,21.57
2023-05-19T11:59:37.839Z,22.22
2023-05-19T12:02:40.805Z,22.11
2023-05-19T12:05:47.421Z,21.88
2023-05-19T12:08:55.468Z,23.14
2023-05-19T12:11:58.591Z,22.92
2023-05-19T12:15:03.816Z,22.75
2023-05-19T12:18:06.821Z,23.22
2023-05-19T12:21:10.036Z,23.54
2023-05-19T12:24:13.063Z,23.54
2023-05-19T12:27:26.545Z,23.47
2023-05-19T12:30:30.449Z,23.16
2023-05-19T12:33:35.733Z,23.35
2023-05-19T12:36:38.899Z,23.25
2023-05-19T12:39:43.392Z,23.16
2023-05-19T12:42:46.585Z,22.90
2023-05-19T12:45:49.817Z,22.94
2023-05-19T12:48:52.638Z,22.86
2023-05-19T12:51:55.412Z,22.51
2023-05-19T12:55:08.403Z,22.99
2023-05-19T12:58:12.433Z,22.84
2023-05-19T13:01:18.938Z,22.57
2023-05-19T13:04:21.860Z,22.09
2023-05-19T13:07:24.805Z,21.66
2023-05-19T13:10:28.557Z,21.41
2023-05-19T13:13:31.423Z,22.14
2023-05-19T13:16:34.201Z,22.86
2023-05-19T13:19:37.050Z,23.11
2023-05-19T13:22:39.878Z,23.15
2023-05-19T13:25:43.581Z,23.02
2023-05-19T13:28:46.312Z,23.11
2023-05-19T13:31:49.088Z,23.40
2023-05-19T13:34:51.930Z,23.28
2023-05-19T13:37:54.710Z,22.97
2023-05-19T13:40:57.488Z,22.55
2023-05-19T13:44:01.271Z,23.67
2023-05-19T13:47:04.173Z,24.49
2023-05-19T13:50:07.342Z,24.41
2023-05-19T13:53:11.587Z,24.61
2023-05-19T13:56:14.426Z,23.01
2023-05-19T13:59:21.671Z,22.67
2023-05-19T14:02:24.542Z,22.35
2023-05-19T14:05:29.050Z,22.32
2023-05-19T14:08:32.463Z,21.48
2023-05-19T14:11:35.442Z,20.72
2023-05-19T14:14:38.715Z,21.81
2023-05-19T14:17:41.707Z,22.03
2023-05-19T14:20:44.617Z,21.41
2023-05-19T14:23:47.419Z,21.21
2023-05-19T14:26:50.728Z,21.89
2023-05-19T14:29:53.515Z,22.32
2023-05-19T14:32:56.662Z,23.34
2023-05-19T14:36:00.480Z,23.27
2023-05-19T14:39:03.384Z,24.71
2023-05-19T14:42:06.144Z,25.12
2023-05-19T14:45:09.467Z,25.12
2023-05-19T14:48:12.623Z,25.70
2023-05-19T14:51:15.361Z,25.87
2023-05-19T14:54:18.124Z,24.61
2023-05-19T14:57:20.993Z,25.02
2023-05-19T15:00:26.229Z,25.88
2023-05-19T15:03:28.970Z,25.88
2023-05-19T15:06:31.843Z,24.23
2023-05-19T15:09:34.659Z,22.99
2023-05-19T15:12:37.480Z,22.70
2023-05-19T15:15:40.282Z,23.92
2023-05-19T15:18:43.199Z,24.30
2023-05-19T15:21:46.056Z,24.79
2023-05-19T15:24:48.994Z,25.02
2023-05-19T15:27:51.764Z,24.39
2023-05-19T15:30:54.597Z,23.84
2023-05-19T15:33:57.390Z,23.79
2023-05-19T15:37:00.139Z,23.79
2023-05-19T15:40:03.750Z,23.48
2023-05-19T15:43:06.480Z,23.74
2023-05-19T15:46:09.284Z,24.04
2023-05-19T15:49:12.659Z,23.75
2023-05-19T15:52:15.706Z,23.37
2023-05-19T15:55:18.680Z,23.27
2023-05-19T15:58:21.498Z,23.54
2023-05-19T16:01:24.256Z,24.22
2023-05-19T16:04:27.075Z,24.64
2023-05-19T16:07:29.820Z,24.68
2023-05-19T16:10:32.967Z,24.47
2023-05-19T16:13:35.950Z,24.57
2023-05-19T16:16:38.863Z,24.58
2023-05-19T16:19:41.758Z,24.44
2023-05-19T16:22:44.529Z,23.93
2023-05-19T16:25:48.112Z,24.07
2023-05-19T16:28:50.945Z,24.10
2023-05-19T16:31:53.803Z,23.86
2023-05-19T16:34:56.642Z,23.59
2023-05-19T16:37:59.376Z,23.00
2023-05-19T16:41:03.815Z,22.66
2023-05-19T16:44:06.586Z,22.32
2023-05-19T16:47:09.327Z,22.11
2023-05-19T16:50:13.124Z,21.95
2023-05-19T16:53:15.949Z,21.71
2023-05-19T16:56:19.378Z,21.42
2023-05-19T16:59:22.188Z,21.13
2023-05-19T17:02:25.106Z,20.87
2023-05-19T17:05:28.002Z,20.69
2023-05-19T17:08:30.829Z,20.68
2023-05-19T17:11:33.674Z,20.57
2023-05-19T17:14:37.010Z,20.52
2023-05-19T17:17:39.851Z,20.30
2023-05-19T17:20:42.750Z,20.15
2023-05-19T17:23:45.757Z,20.06
2023-05-19T17:26:48.517Z,19.92
2023-05-19T17:29:51.280Z,19.71
2023-05-19T17:32:55.047Z,19.55
2023-05-19T17:35:57.795Z,19.33
2023-05-19T17:39:00.728Z,19.00
2023-05-19T17:42:04.203Z,18.85
2023-05-19T17:45:07.706Z,18.72
2023-05-19T17:48:10.510Z,18.65
2023-05-19T17:51:13.315Z,18.51
2023-05-19T17:54:16.381Z,18.47
2023-05-19T17:57:20.157Z,18.41
2023-05-19T18:00:23.496Z,18.44
2023-05-19T18:03:26.707Z,18.37
2023-05-19T18:06:31.605Z,18.29
2023-05-19T18:09:38.440Z,18.20
2023-05-19T18:12:41.163Z,18.05
2023-05-19T18:15:43.922Z,17.85
2023-05-19T18:18:50.526Z,17.77
2023-05-19T18:21:53.422Z,17.74
2023-05-19T18:24:57.698Z,17.64
2023-05-19T18:28:00.536Z,17.47
2023-05-19T18:31:05.350Z,17.37
2023-05-19T18:34:08.161Z,17.27
2023-05-19T18:37:11.010Z,17.35
2023-05-19T18:40:13.827Z,17.18
2023-05-19T18:43:16.786Z,16.89
2023-05-19T18:46:20.723Z,16.81
2023-05-19T18:49:25.164Z,16.82
2023-05-19T18:52:28.774Z,16.87
2023-05-19T18:55:31.545Z,16.93
2023-05-19T18:58:34.383Z,16.92
2023-05-19T19:01:37.331Z,16.86
2023-05-19T19:04:41.330Z,16.77
2023-05-19T19:07:44.886Z,16.78
2023-05-19T19:10:50.556Z,16.80
2023-05-19T19:13:55.601Z,16.64
2023-05-19T19:16:58.419Z,16.44
2023-05-19T19:20:01.300Z,16.44
2023-05-19T19:23:06.726Z,16.47
2023-05-19T19:26:09.859Z,16.41
2023-05-19T19:29:12.602Z,16.25
2023-05-19T19:32:15.495Z,16.24
2023-05-19T19:35:18.297Z,16.15
2023-05-19T19:38:21.139Z,16.14
2023-05-19T19:41:25.161Z,16.04
2023-05-19T19:44:27.944Z,16.04
2023-05-19T19:47:30.895Z,15.99
2023-05-19T19:50:34.837Z,15.99
2023-05-19T19:53:38.070Z,15.88
2023-05-19T19:56:40.899Z,15.70
2023-05-19T19:59:43.838Z,15.75
2023-05-19T20:05:56.717Z,15.49
2023-05-19T20:09:00.025Z,15.53
2023-05-19T20:12:02.762Z,15.55
2023-05-19T20:15:06.393Z,15.41
2023-05-19T20:18:09.429Z,15.42
2023-05-19T20:21:12.224Z,15.63
2023-05-19T20:24:14.993Z,15.56
2023-05-19T20:27:17.750Z,15.60
2023-05-19T20:30:20.866Z,15.64
2023-05-19T20:33:23.601Z,15.78
2023-05-19T20:36:26.788Z,15.73
2023-05-19T20:39:31.120Z,15.83
2023-05-19T20:42:34.171Z,15.75
2023-05-19T20:45:37.154Z,15.72
2023-05-19T20:48:40.170Z,15.75
2023-05-19T20:51:43.056Z,15.70
2023-05-19T20:54:46.571Z,15.65
2023-05-19T20:57:49.319Z,15.64
2023-05-19T21:00:57.782Z,15.59
2023-05-19T21:04:01.265Z,15.61
2023-05-19T21:07:04.567Z,15.58
2023-05-19T21:10:07.998Z,15.51
2023-05-19T21:13:10.826Z,15.50
2023-05-19T21:16:13.570Z,15.47
2023-05-19T21:19:16.603Z,15.46
2023-05-19T21:22:19.406Z,15.43
2023-05-19T21:25:22.476Z,15.38
2023-05-19T21:28:25.250Z,15.23
2023-05-19T21:31:28.007Z,15.17
2023-05-19T21:34:30.864Z,15.15
2023-05-19T21:37:35.745Z,15.16
2023-05-19T21:40:38.467Z,15.17
2023-05-19T21:43:42.180Z,14.99
2023-05-19T21:46:45.085Z,14.95
2023-05-19T21:49:47.902Z,14.89
2023-05-19T21:52:51.061Z,14.90
2023-05-19T21:55:53.957Z,14.79
2023-05-19T21:58:56.749Z,14.77
2023-05-19T22:01:59.539Z,14.78
2023-05-19T22:05:02.332Z,14.76
2023-05-19T22:08:05.319Z,14.50
2023-05-19T22:11:09.178Z,14.36
2023-05-19T22:14:11.953Z,14.38
2023-05-19T22:17:14.719Z,14.20
2023-05-19T22:20:17.702Z,14.10
2023-05-19T22:23:21.025Z,14.06
2023-05-19T22:26:23.748Z,13.94
2023-05-19T22:29:26.536Z,13.96
2023-05-19T22:32:30.558Z,14.17
2023-05-19T22:35:33.390Z,14.09
2023-05-19T22:38:36.496Z,14.02
2023-05-19T22:41:39.549Z,14.06
2023-05-19T22:44:43.570Z,14.08
2023-05-19T22:47:48.143Z,14.13
2023-05-19T22:50:51.108Z,14.18
2023-05-19T22:53:54.299Z,14.18
2023-05-19T22:56:57.132Z,14.15
2023-05-19T22:59:59.951Z,14.18
2023-05-19T23:03:02.718Z,14.11
2023-05-19T23:06:05.460Z,14.07
2023-05-19T23:09:08.274Z,13.99
2023-05-19T23:12:11.035Z,13.98
2023-05-19T23:15:13.776Z,13.90
2023-05-19T23:18:16.510Z,13.91
2023-05-19T23:21:19.510Z,13.76
2023-05-19T23:24:22.332Z,13.60
2023-05-19T23:27:25.100Z,13.48
2023-05-19T23:30:30.453Z,13.44
2023-05-19T23:33:33.270Z,13.49
2023-05-19T23:36:36.732Z,13.34
2023-05-19T23:39:39.641Z,13.38
2023-05-19T23:42:44.521Z,13.20
2023-05-19T23:45:47.293Z,13.06
2023-05-19T23:48:50.105Z,13.15
2023-05-19T23:51:52.929Z,13.07
2023-05-19T23:54:55.745Z,13.02
2023-05-19T23:57:58.569Z,12.97
